Time;durP1;ratioP1;P1;durP2;ratioP2;P2;SDS_P1;SDS_P2;PMS_P1;PMS_P2;Temp;Humidity;BMP_temperature;BMP_pressure;BME280_temperature;BME280_humidity;BME280_pressure;Samples;Min_cycle;Max_cycle;Signal;HPM_P1;HPM_P2
2024/01/14 00:02:17;;;;;;;37.27;22.50;;;;;;;-4.78;57.61;94865.72;5039820;28;20137;-92
2024/01/14 00:04:44;;;;;;;35.07;19.80;;;;;;;-4.79;57.90;94858.81;5031346;28;20462;-91
2024/01/14 00:07:09;;;;;;;40.07;22.20;;;;;;;-4.85;57.85;94866.31;5032194;28;20068;-93
2024/01/14 00:09:35;;;;;;;43.47;20.93;;;;;;;-4.85;57.84;94871.69;5031364;28;20053;-93
2024/01/14 00:12:00;;;;;;;34.80;18.93;;;;;;;-4.81;57.67;94864.53;5032068;28;20037;-92
2024/01/14 00:14:26;;;;;;;31.53;17.93;;;;;;;-4.84;57.61;94873.22;5031212;28;20125;-91
2024/01/14 00:16:51;;;;;;;31.77;16.83;;;;;;;-4.85;58.09;94863.63;5031961;28;20088;-93
2024/01/14 00:19:18;;;;;;;38.20;17.40;;;;;;;-4.82;57.95;94860.28;5033737;28;20056;-92
2024/01/14 00:21:43;;;;;;;30.87;15.53;;;;;;;-4.83;58.25;94856.03;5031527;28;20033;-92
2024/01/14 00:24:08;;;;;;;29.33;17.57;;;;;;;-4.83;57.87;94863.28;5033749;28;20033;-91
2024/01/14 00:26:35;;;;;;;35.67;15.90;;;;;;;-4.85;57.90;94860.94;5033410;28;20090;-93
2024/01/14 00:29:02;;;;;;;34.67;16.27;;;;;;;-4.86;57.56;94859.41;5039278;28;20025;-92
2024/01/14 00:31:27;;;;;;;30.53;16.40;;;;;;;-4.89;57.69;94856.59;5047384;28;20017;-90
2024/01/14 00:33:52;;;;;;;25.50;14.37;;;;;;;-4.87;57.88;94851.69;5050935;28;20093;-91
2024/01/14 00:36:18;;;;;;;28.37;14.07;;;;;;;-4.95;57.96;94845.34;5049994;28;20029;-90
2024/01/14 00:38:44;;;;;;;31.17;15.67;;;;;;;-4.97;57.63;94852.16;5048369;28;20034;-92
2024/01/14 00:41:10;;;;;;;29.63;15.00;;;;;;;-4.99;57.60;94852.50;5042088;28;20041;-93
2024/01/14 00:43:35;;;;;;;28.55;16.80;;;;;;;-5.02;57.52;94863.13;5033882;28;20036;-92
2024/01/14 00:46:02;;;;;;;31.90;15.43;;;;;;;-4.93;57.41;94855.72;5035552;28;20018;-91
2024/01/14 00:48:28;;;;;;;29.63;14.43;;;;;;;-4.96;57.49;94859.09;5039735;28;20129;-92
2024/01/14 00:50:54;;;;;;;29.80;15.33;;;;;;;-4.98;57.54;94845.25;5031879;28;20063;-92
2024/01/14 00:53:22;;;;;;;29.50;16.30;;;;;;;-5.01;57.64;94840.56;5030434;28;20056;-93
2024/01/14 00:55:48;;;;;;;31.70;16.17;;;;;;;-5.04;57.36;94846.59;5032973;28;20056;-91
2024/01/14 00:58:16;;;;;;;31.20;15.80;;;;;;;-5.04;57.44;94833.22;5034448;28;20021;-94
2024/01/14 01:00:45;;;;;;;31.95;16.30;;;;;;;-5.11;57.39;94836.44;5030853;28;20052;-93
2024/01/14 01:03:10;;;;;;;29.63;16.30;;;;;;;-5.08;57.11;94835.78;5032314;28;20049;-93
2024/01/14 01:05:35;;;;;;;32.03;17.60;;;;;;;-5.12;57.22;94827.63;5031505;28;20052;-94
2024/01/14 01:08:02;;;;;;;32.47;16.13;;;;;;;-5.15;57.59;94827.53;5031269;28;20056;-93
2024/01/14 01:10:27;;;;;;;34.30;16.83;;;;;;;-5.11;57.47;94831.06;5028798;28;20436;-92
2024/01/14 01:12:52;;;;;;;29.67;16.00;;;;;;;-5.13;57.26;94836.00;5030678;28;20052;-92
2024/01/14 01:15:18;;;;;;;33.13;16.77;;;;;;;-5.16;56.94;94823.28;5034109;28;20057;-92
2024/01/14 01:17:43;;;;;;;26.37;16.57;;;;;;;-5.14;56.95;94826.41;5028259;28;20044;-92
2024/01/14 01:20:09;;;;;;;27.30;16.77;;;;;;;-5.15;57.03;94827.53;5029482;28;20030;-92
2024/01/14 01:22:35;;;;;;;29.03;17.03;;;;;;;-5.18;57.03;94820.16;5028688;28;20057;-93
2024/01/14 01:25:00;;;;;;;36.40;17.17;;;;;;;-5.15;56.74;94825.63;5030666;28;20036;-92
2024/01/14 01:27:27;;;;;;;35.80;17.83;;;;;;;-5.14;56.70;94818.38;5029478;28;20976;-92
2024/01/14 01:29:52;;;;;;;33.27;17.00;;;;;;;-5.18;57.00;94807.53;5030269;28;20094;-93
2024/01/14 01:32:18;;;;;;;34.53;18.13;;;;;;;-5.21;57.92;94804.78;5033310;28;20061;-94
2024/01/14 01:34:44;;;;;;;31.27;16.73;;;;;;;-5.21;58.20;94813.59;5029686;28;20509;-93
2024/01/14 01:37:10;;;;;;;32.63;16.27;;;;;;;-5.18;57.59;94804.06;5033188;28;20076;-93
2024/01/14 01:39:35;;;;;;;30.57;16.47;;;;;;;-5.21;57.29;94799.41;5037688;28;20036;-93
2024/01/14 01:42:01;;;;;;;32.77;17.13;;;;;;;-5.18;57.36;94798.72;5038875;28;20029;-93
2024/01/14 01:44:26;;;;;;;35.13;17.83;;;;;;;-5.22;57.24;94795.94;5034776;28;20021;-94
2024/01/14 01:46:52;;;;;;;35.20;18.87;;;;;;;-5.25;57.36;94785.91;5031240;28;20051;-94
2024/01/14 01:49:17;;;;;;;31.40;19.60;;;;;;;-5.32;57.24;94783.03;5030523;28;20119;-94
2024/01/14 01:51:48;;;;;;;31.57;16.67;;;;;;;-5.23;57.43;94782.88;5034008;28;20472;-94
2024/01/14 01:54:32;;;;;;;34.60;18.93;;;;;;;-5.23;57.80;94783.66;5029965;28;20029;-92
2024/01/14 01:56:58;;;;;;;33.70;17.73;;;;;;;-5.24;58.67;94776.72;5031836;28;20041;-92
2024/01/14 01:59:24;;;;;;;34.40;18.63;;;;;;;-5.22;58.76;94777.19;5041209;28;20034;-92
2024/01/14 02:01:49;;;;;;;29.77;16.97;;;;;;;-5.24;58.37;94782.09;5031800;28;20033;-92
2024/01/14 02:04:15;;;;;;;34.80;18.50;;;;;;;-5.18;58.05;94778.06;5030038;28;20030;-93
2024/01/14 02:06:41;;;;;;;34.07;18.10;;;;;;;-5.20;57.98;94779.53;5029834;28;20022;-93
2024/01/14 02:09:08;;;;;;;34.17;18.87;;;;;;;-5.14;57.40;94773.56;5031409;28;20053;-93
2024/01/14 02:11:34;;;;;;;33.67;17.27;;;;;;;-5.19;57.66;94768.47;5031192;28;20357;-94
2024/01/14 02:13:59;;;;;;;31.53;16.10;;;;;;;-5.16;57.88;94778.50;5029492;28;20125;-93
2024/01/14 02:16:25;;;;;;;31.53;17.43;;;;;;;-5.17;57.83;94779.59;5031548;28;20531;-94
2024/01/14 02:18:50;;;;;;;26.33;16.23;;;;;;;-5.26;57.71;94780.88;5028749;28;20029;-94
2024/01/14 02:21:20;;;;;;;33.70;19.63;;;;;;;-5.21;57.29;94775.28;5029441;28;20251;-93
2024/01/14 02:23:49;;;;;;;30.80;16.93;;;;;;;-5.20;57.21;94780.31;5028823;28;20542;-93
2024/01/14 02:26:15;;;;;;;32.77;16.30;;;;;;;-5.22;57.55;94769.16;5016310;28;20025;-94
2024/01/14 02:28:41;;;;;;;27.80;17.83;;;;;;;-5.21;57.33;94769.94;5029491;28;20125;-93
2024/01/14 02:31:07;;;;;;;29.87;17.53;;;;;;;-5.27;57.62;94773.97;5028816;28;20033;-93
2024/01/14 02:33:32;;;;;;;29.87;18.63;;;;;;;-5.28;57.64;94770.47;5028360;28;20033;-93
2024/01/14 02:35:57;;;;;;;30.37;18.90;;;;;;;-5.31;57.12;94770.41;5028512;28;20033;-93
2024/01/14 02:38:23;;;;;;;32.17;16.67;;;;;;;-5.32;57.28;94764.25;5029737;28;20097;-93
2024/01/14 02:40:49;;;;;;;32.17;16.77;;;;;;;-5.33;57.43;94770.75;5029502;28;20495;-94
2024/01/14 02:43:14;;;;;;;36.80;18.30;;;;;;;-5.34;57.63;94763.81;5028729;28;20026;-92
2024/01/14 02:45:40;;;;;;;33.03;18.07;;;;;;;-5.35;57.23;94756.88;5029786;28;20107;-92
2024/01/14 02:48:06;;;;;;;30.93;15.63;;;;;;;-5.40;56.98;94763.25;5029433;28;20021;-92
2024/01/14 02:50:31;;;;;;;29.77;16.40;;;;;;;-5.47;57.44;94759.59;5029161;28;20032;-92
2024/01/14 02:52:57;;;;;;;30.37;18.57;;;;;;;-5.52;56.92;94757.94;5030551;28;20047;-93
2024/01/14 02:55:22;;;;;;;33.43;17.30;;;;;;;-5.52;56.63;94765.97;5033390;28;20025;-93
2024/01/14 02:57:48;;;;;;;33.37;18.70;;;;;;;-5.55;56.51;94753.28;5036502;28;20514;-93
2024/01/14 03:00:15;;;;;;;32.37;17.50;;;;;;;-5.61;56.67;94752.72;5033267;28;20029;-93
2024/01/14 03:02:41;;;;;;;26.83;15.43;;;;;;;-5.62;57.03;94761.88;5032050;28;20040;-94
2024/01/14 03:05:07;;;;;;;27.73;16.93;;;;;;;-5.63;56.62;94756.84;5032764;28;20061;-94
2024/01/14 03:07:32;;;;;;;30.00;15.77;;;;;;;-5.67;56.95;94753.31;5032399;28;20048;-93
2024/01/14 03:09:58;;;;;;;29.07;16.80;;;;;;;-5.72;56.86;94750.84;5032052;28;20474;-93
2024/01/14 03:12:23;;;;;;;29.73;17.10;;;;;;;-5.71;56.94;94763.91;5032865;28;20032;-94
2024/01/14 03:14:49;;;;;;;31.70;17.27;;;;;;;-5.73;57.06;94749.28;5033969;28;20029;-93
2024/01/14 03:17:14;;;;;;;37.57;17.30;;;;;;;-5.80;57.20;94749.84;5032486;28;20427;-91
2024/01/14 03:19:39;;;;;;;31.33;17.93;;;;;;;-5.80;57.18;94754.41;5032142;28;20030;-92
2024/01/14 03:22:05;;;;;;;31.80;15.63;;;;;;;-5.78;56.74;94754.88;5032303;28;20429;-91
2024/01/14 03:24:30;;;;;;;32.87;17.43;;;;;;;-5.87;57.01;94757.66;5031787;28;20029;-92
2024/01/14 03:26:55;;;;;;;30.20;16.07;;;;;;;-5.85;56.72;94762.69;5032501;28;20037;-91
2024/01/14 03:29:21;;;;;;;31.53;17.77;;;;;;;-5.93;57.05;94746.44;5032223;28;20037;-92
2024/01/14 03:31:46;;;;;;;32.07;17.80;;;;;;;-5.90;57.09;94744.97;5031952;28;20117;-92
2024/01/14 03:34:11;;;;;;;27.50;16.90;;;;;;;-5.89;57.10;94751.88;5032303;28;20415;-92
2024/01/14 03:36:37;;;;;;;32.83;18.50;;;;;;;-5.89;57.22;94744.63;5031568;28;20054;-94
2024/01/14 03:39:03;;;;;;;30.30;17.57;;;;;;;-5.86;56.89;94751.19;5035263;28;20025;-92
2024/01/14 03:41:30;;;;;;;29.90;18.20;;;;;;;-5.94;56.86;94741.44;5034195;28;20083;-91
2024/01/14 03:43:55;;;;;;;30.57;17.33;;;;;;;-5.93;57.27;94751.78;5040917;28;20103;-90
2024/01/14 03:46:20;;;;;;;36.60;19.80;;;;;;;-5.88;57.44;94756.88;5033838;28;20025;-91
2024/01/14 03:48:46;;;;;;;33.10;19.90;;;;;;;-5.94;57.87;94760.16;5031765;28;20021;-95
2024/01/14 03:51:11;;;;;;;37.17;19.50;;;;;;;-5.95;58.46;94756.72;5034574;28;20508;-93
2024/01/14 03:53:36;;;;;;;36.57;19.00;;;;;;;-5.94;58.30;94760.16;5037178;28;20014;-95
2024/01/14 03:56:02;;;;;;;34.77;20.10;;;;;;;-5.93;58.19;94767.84;5034902;28;20112;-93
2024/01/14 03:58:27;;;;;;;32.67;18.70;;;;;;;-5.95;58.42;94775.44;5031415;28;20364;-94
2024/01/14 04:00:53;;;;;;;32.67;17.37;;;;;;;-5.95;58.19;94766.63;5035667;28;20029;-92
2024/01/14 04:03:18;;;;;;;34.37;19.47;;;;;;;-5.94;58.35;94754.81;5038953;28;20232;-92
2024/01/14 04:05:43;;;;;;;33.90;19.47;;;;;;;-5.99;58.07;94750.47;5035624;28;20408;-91
2024/01/14 04:08:09;;;;;;;30.03;17.87;;;;;;;-6.00;58.89;94758.84;5034193;28;20029;-92
2024/01/14 04:10:34;;;;;;;42.37;16.30;;;;;;;-6.03;58.75;94770.19;5036867;28;20472;-92
2024/01/14 04:13:00;;;;;;;26.90;14.93;;;;;;;-6.01;57.93;94762.63;5045387;28;20044;-92
2024/01/14 04:15:25;;;;;;;30.53;16.53;;;;;;;-6.00;57.41;94764.19;5034144;28;20400;-93
2024/01/14 04:17:50;;;;;;;29.10;15.87;;;;;;;-5.97;57.92;94760.81;5031564;28;20028;-92
2024/01/14 04:20:16;;;;;;;29.53;14.87;;;;;;;-5.98;57.89;94752.00;5029934;28;20065;-92
2024/01/14 04:22:41;;;;;;;30.00;14.90;;;;;;;-5.95;58.05;94755.94;5030545;28;20029;-93
2024/01/14 04:25:07;;;;;;;24.10;14.93;;;;;;;-5.98;58.26;94760.03;5030999;28;20105;-92
2024/01/14 04:27:34;;;;;;;27.87;14.67;;;;;;;-5.97;58.41;94752.78;5030588;28;20025;-92
2024/01/14 04:30:00;;;;;;;35.33;15.60;;;;;;;-6.01;58.54;94747.34;5030990;28;20036;-91
2024/01/14 04:32:25;;;;;;;27.23;14.53;;;;;;;-6.04;58.29;94752.56;5029018;28;20199;-92
2024/01/14 04:34:51;;;;;;;23.73;15.23;;;;;;;-6.08;58.26;94747.09;5033973;28;20060;-90
2024/01/14 04:37:16;;;;;;;25.07;14.63;;;;;;;-6.11;58.41;94749.69;5037059;28;20033;-91
2024/01/14 04:39:41;;;;;;;28.50;14.53;;;;;;;-6.11;58.06;94747.00;5047061;28;20013;-93
2024/01/14 04:42:07;;;;;;;26.10;14.93;;;;;;;-6.11;58.24;94758.50;5054139;28;20018;-92
2024/01/14 04:44:32;;;;;;;25.70;15.10;;;;;;;-6.11;58.10;94749.69;5054226;28;20032;-92
2024/01/14 04:46:57;;;;;;;30.60;16.27;;;;;;;-6.08;58.59;94744.44;5054521;28;20052;-91
2024/01/14 04:49:23;;;;;;;28.97;14.97;;;;;;;-6.01;58.24;94751.91;5051232;28;20060;-91
2024/01/14 04:51:48;;;;;;;27.27;15.43;;;;;;;-6.03;58.05;94754.13;5035390;28;20053;-92
2024/01/14 04:54:14;;;;;;;31.90;15.43;;;;;;;-6.04;57.87;94761.38;5033029;28;20025;-91
2024/01/14 04:56:39;;;;;;;28.63;16.27;;;;;;;-6.00;57.74;94756.16;5037645;28;20081;-90
2024/01/14 04:59:05;;;;;;;27.10;14.67;;;;;;;-6.03;57.83;94749.56;5038187;28;20029;-91
2024/01/14 05:01:30;;;;;;;30.70;15.77;;;;;;;-6.04;57.98;94760.59;5041151;28;20033;-91
2024/01/14 05:03:56;;;;;;;29.37;15.77;;;;;;;-6.01;59.29;94758.06;5042601;28;20079;-91
2024/01/14 05:06:21;;;;;;;33.00;17.63;;;;;;;-5.93;59.74;94759.03;5041827;28;20076;-90
2024/01/14 05:08:47;;;;;;;28.53;16.23;;;;;;;-5.95;58.33;94754.03;5039508;28;20038;-92
2024/01/14 05:11:12;;;;;;;30.40;16.20;;;;;;;-5.94;57.76;94757.47;5029293;28;20052;-91
2024/01/14 05:13:37;;;;;;;30.83;16.40;;;;;;;-6.07;57.51;94754.03;5031942;28;20029;-91
2024/01/14 05:16:03;;;;;;;30.47;16.80;;;;;;;-6.07;57.83;94751.38;5029357;28;20041;-91
2024/01/14 05:18:28;;;;;;;33.40;16.13;;;;;;;-6.08;57.68;94749.78;5029825;28;20059;-91
2024/01/14 05:20:54;;;;;;;36.93;18.40;;;;;;;-6.11;57.39;94747.00;5031990;28;20452;-91
2024/01/14 05:23:21;;;;;;;28.43;14.67;;;;;;;-6.13;57.44;94750.03;5030698;28;20030;-90
2024/01/14 05:25:46;;;;;;;30.20;15.80;;;;;;;-6.13;57.65;94749.25;5028274;28;20432;-91
2024/01/14 05:28:11;;;;;;;29.07;15.77;;;;;;;-6.13;57.68;94749.25;5031585;28;20103;-92
2024/01/14 05:30:37;;;;;;;25.17;15.93;;;;;;;-6.08;57.37;94741.75;5027445;28;20025;-92
2024/01/14 05:33:02;;;;;;;25.93;14.77;;;;;;;-6.08;57.59;94741.75;5027061;28;20052;-90
2024/01/14 05:35:28;;;;;;;31.83;15.67;;;;;;;-6.06;57.43;94744.91;5027967;28;20117;-91
2024/01/14 05:37:53;;;;;;;33.00;16.17;;;;;;;-6.05;57.60;94757.16;5027972;28;20048;-90
2024/01/14 05:40:19;;;;;;;31.97;16.90;;;;;;;-6.09;57.61;94747.44;5028140;28;20069;-90
2024/01/14 05:42:45;;;;;;;27.43;16.30;;;;;;;-6.17;57.57;94743.78;5027923;28;20037;-90
2024/01/14 05:45:10;;;;;;;30.53;17.23;;;;;;;-6.21;57.68;94740.97;5026636;28;20021;-91
2024/01/14 05:47:36;;;;;;;26.83;16.70;;;;;;;-6.17;57.88;94752.59;5032166;28;20484;-90
2024/01/14 05:50:01;;;;;;;26.17;16.97;;;;;;;-6.12;57.69;94745.47;5013149;28;20116;-90
2024/01/14 05:52:27;;;;;;;34.50;16.70;;;;;;;-6.13;57.59;94752.72;5029142;28;20416;-92
2024/01/14 05:54:52;;;;;;;32.97;17.40;;;;;;;-6.14;57.56;94751.13;5029335;28;20034;-92
2024/01/14 05:57:17;;;;;;;27.67;16.50;;;;;;;-6.13;57.53;94747.34;5028720;28;20033;-93
2024/01/14 05:59:43;;;;;;;36.83;16.17;;;;;;;-6.11;57.40;94747.78;5027059;28;20025;-91
2024/01/14 06:02:09;;;;;;;29.27;17.57;;;;;;;-6.12;57.45;94742.78;5027820;28;20596;-91
2024/01/14 06:04:34;;;;;;;27.63;17.00;;;;;;;-6.09;57.94;94747.44;5027823;28;20025;-90
2024/01/14 06:07:00;;;;;;;33.30;17.07;;;;;;;-6.02;57.52;94743.13;5028582;28;20033;-90
2024/01/14 06:09:25;;;;;;;30.53;18.93;;;;;;;-6.05;57.52;94751.03;5037237;28;20056;-90
2024/01/14 06:11:51;;;;;;;29.90;17.60;;;;;;;-6.07;57.62;94747.91;5033804;28;20021;-91
2024/01/14 06:14:16;;;;;;;37.93;18.20;;;;;;;-6.07;57.59;94743.34;5033559;28;20373;-91
2024/01/14 06:16:42;;;;;;;24.60;16.47;;;;;;;-6.11;58.84;94734.41;5029392;28;20172;-91
2024/01/14 06:19:07;;;;;;;23.10;13.97;;;;;;;-6.24;60.85;94732.88;5030648;28;20029;-91
2024/01/14 06:21:32;;;;;;;31.87;18.00;;;;;;;-6.25;61.57;94737.44;5025063;28;20026;-84
2024/01/14 06:23:58;;;;;;;29.93;16.53;;;;;;;-6.15;60.81;94739.63;5026423;28;20028;-83
2024/01/14 06:26:23;;;;;;;32.87;17.43;;;;;;;-6.06;60.71;94742.22;5026456;28;20472;-85
2024/01/14 06:28:49;;;;;;;38.83;19.30;;;;;;;-5.97;58.88;94734.06;5023567;28;20041;-84
2024/01/14 06:31:14;;;;;;;30.93;17.27;;;;;;;-5.92;58.35;94739.19;5027158;28;20109;-84
2024/01/14 06:33:40;;;;;;;37.50;19.63;;;;;;;-5.96;58.63;94731.06;5025537;28;20025;-82
2024/01/14 06:36:06;;;;;;;29.53;17.80;;;;;;;-5.94;58.68;94736.84;5027328;28;20412;-85
2024/01/14 06:38:34;;;;;;;38.17;20.63;;;;;;;-5.87;58.16;94730.88;5024093;28;20094;-85
2024/01/14 06:41:00;;;;;;;35.73;20.27;;;;;;;-5.81;58.73;94728.75;5025511;28;20097;-84
2024/01/14 06:43:25;;;;;;;34.83;20.23;;;;;;;-5.72;58.65;94727.53;5026088;28;20032;-84
2024/01/14 06:45:50;;;;;;;36.57;19.63;;;;;;;-5.68;58.81;94720.38;5025288;28;20029;-85
2024/01/14 06:48:16;;;;;;;51.90;24.27;;;;;;;-5.65;58.71;94721.59;5027055;28;20022;-85
2024/01/14 06:50:41;;;;;;;39.37;22.37;;;;;;;-5.60;58.81;94726.72;5026373;28;20468;-87
2024/01/14 06:53:06;;;;;;;34.13;19.73;;;;;;;-5.57;58.54;94725.25;5031227;28;20063;-84
2024/01/14 06:55:32;;;;;;;43.20;23.20;;;;;;;-5.50;58.58;94728.16;5024095;28;20393;-84
2024/01/14 06:57:57;;;;;;;45.93;27.17;;;;;;;-5.48;58.30;94725.91;5026589;28;20034;-84
2024/01/14 07:00:23;;;;;;;60.80;33.53;;;;;;;-5.42;58.19;94719.19;5025586;28;20026;-84
2024/01/14 07:02:49;;;;;;;58.67;35.17;;;;;;;-5.35;58.45;94727.41;5025588;28;20137;-83
2024/01/14 07:05:15;;;;;;;72.93;37.80;;;;;;;-5.35;58.09;94714.78;5026065;28;20036;-85
2024/01/14 07:07:40;;;;;;;61.00;36.70;;;;;;;-5.31;58.31;94717.59;5025074;28;20033;-84
2024/01/14 07:10:06;;;;;;;71.43;36.93;;;;;;;-5.28;58.16;94705.38;5026495;28;20029;-84
2024/01/14 07:12:31;;;;;;;68.80;35.97;;;;;;;-5.18;57.66;94713.72;5025500;28;20443;-88
2024/01/14 07:14:57;;;;;;;61.60;34.40;;;;;;;-5.29;57.65;94691.22;5027433;28;20412;-90
2024/01/14 07:17:22;;;;;;;69.03;37.60;;;;;;;-5.02;57.29;94713.00;5025751;28;20500;-90
2024/01/14 07:19:47;;;;;;;65.70;36.43;;;;;;;-4.97;56.98;94699.34;5027393;28;20121;-90
2024/01/14 07:22:13;;;;;;;73.87;38.07;;;;;;;-4.89;56.93;94709.13;5026464;28;20032;-90
2024/01/14 07:24:38;;;;;;;71.10;40.67;;;;;;;-4.82;57.48;94717.34;5028893;28;20163;-90
2024/01/14 07:27:04;;;;;;;75.83;37.73;;;;;;;-4.68;57.40;94728.44;5026955;28;20144;-90
2024/01/14 07:29:30;;;;;;;73.97;41.03;;;;;;;-4.59;57.04;94737.13;5032769;28;20096;-85
2024/01/14 07:31:56;;;;;;;75.93;41.88;;;;;;;-4.43;57.32;94730.97;5030273;28;20071;-86
2024/01/14 07:34:22;;;;;;;85.88;44.83;;;;;;;-4.23;57.08;94735.31;5024209;28;20025;-86
2024/01/14 07:36:47;;;;;;;92.03;46.15;;;;;;;-4.17;56.71;94730.47;5026224;28;20151;-86
2024/01/14 07:39:14;;;;;;;90.60;46.35;;;;;;;-4.07;56.54;94730.72;5024637;28;20547;-86
2024/01/14 07:41:40;;;;;;;79.10;44.47;;;;;;;-3.94;56.24;94726.00;5029851;28;20132;-87
2024/01/14 07:44:05;;;;;;;83.40;46.05;;;;;;;-3.71;55.86;94728.81;5040787;28;20416;-90
2024/01/14 07:46:31;;;;;;;81.07;43.38;;;;;;;-3.47;55.16;94719.72;5035837;28;20034;-90
2024/01/14 07:48:57;;;;;;;72.72;39.22;;;;;;;-3.36;54.55;94719.94;5031640;28;20083;-90
2024/01/14 07:51:22;;;;;;;63.78;38.55;;;;;;;-3.33;54.33;94720.00;5027992;28;20029;-89
2024/01/14 07:53:48;;;;;;;65.47;37.53;;;;;;;-3.30;54.19;94710.47;5036537;28;20029;-89
2024/01/14 07:56:13;;;;;;;74.25;37.70;;;;;;;-2.98;53.37;94711.13;5034601;28;20021;-90
2024/01/14 07:58:38;;;;;;;66.70;36.05;;;;;;;-2.60;52.57;94710.25;5031812;28;20043;-90
2024/01/14 08:01:05;;;;;;;69.47;36.67;;;;;;;-2.18;51.29;94698.63;5029602;28;20029;-88
2024/01/14 08:03:30;;;;;;;71.10;37.20;;;;;;;-1.54;50.40;94704.19;5029328;28;20110;-89
2024/01/14 08:05:56;;;;;;;71.30;39.90;;;;;;;-0.56;48.34;94687.59;5030093;28;20513;-89
2024/01/14 08:08:21;;;;;;;72.75;36.90;;;;;;;0.77;44.80;94690.06;5028270;28;20453;-89
2024/01/14 08:10:48;;;;;;;66.20;36.47;;;;;;;2.34;41.70;94689.56;5030405;28;20132;-91
2024/01/14 08:13:14;;;;;;;66.95;35.60;;;;;;;3.62;38.73;94699.19;5028842;28;20456;-90
2024/01/14 08:15:39;;;;;;;61.95;35.20;;;;;;;4.60;36.15;94690.66;5031283;28;20056;-90
2024/01/14 08:18:04;;;;;;;54.88;32.60;;;;;;;5.64;34.39;94692.94;5031248;28;20029;-91
2024/01/14 08:20:31;;;;;;;60.38;34.15;;;;;;;6.76;32.56;94692.75;5028937;28;20017;-90
2024/01/14 08:22:56;;;;;;;53.90;32.22;;;;;;;7.68;30.84;94695.63;5029819;28;20028;-90
2024/01/14 08:25:22;;;;;;;47.53;31.02;;;;;;;8.43;29.40;94702.16;5026945;28;20025;-90
2024/01/14 08:27:49;;;;;;;55.85;34.60;;;;;;;9.32;28.14;94702.59;5029434;28;20096;-89
2024/01/14 08:30:14;;;;;;;47.25;31.35;;;;;;;9.98;27.02;94694.84;5027687;28;20510;-88
2024/01/14 08:32:40;;;;;;;50.05;31.90;;;;;;;10.64;26.23;94693.91;5027913;28;20025;-88
2024/01/14 08:35:05;;;;;;;45.53;31.58;;;;;;;11.25;25.17;94694.63;5027484;28;20411;-82
2024/01/14 08:37:31;;;;;;;50.20;33.08;;;;;;;11.62;24.71;94689.38;5027895;28;20017;-82
2024/01/14 08:39:57;;;;;;;52.83;34.55;;;;;;;12.34;23.99;94704.00;5028190;28;20101;-82
2024/01/14 08:42:22;;;;;;;54.95;36.70;;;;;;;12.91;23.33;94696.94;5027311;28;20021;-82
2024/01/14 08:44:48;;;;;;;50.95;35.55;;;;;;;13.31;22.56;94685.03;5028214;28;20456;-83
2024/01/14 08:47:13;;;;;;;53.85;35.75;;;;;;;13.64;22.22;94684.38;5027067;28;20446;-82
2024/01/14 08:49:42;;;;;;;54.75;38.10;;;;;;;14.23;21.66;94695.91;5028031;28;20026;-84
2024/01/14 08:52:08;;;;;;;53.78;37.97;;;;;;;14.65;21.07;94695.13;5027329;28;20052;-87
2024/01/14 08:54:34;;;;;;;61.15;40.17;;;;;;;15.14;20.48;94701.00;5027992;28;20102;-87
2024/01/14 08:57:00;;;;;;;68.18;46.78;;;;;;;15.19;20.37;94679.41;5027380;28;20403;-83
2024/01/14 08:59:25;;;;;;;67.72;44.72;;;;;;;15.37;20.24;94682.06;5027270;28;20021;-83
2024/01/14 09:01:51;;;;;;;60.85;43.63;;;;;;;15.63;20.14;94685.06;5028022;28;20052;-84
2024/01/14 09:04:16;;;;;;;54.25;40.20;;;;;;;16.15;19.74;94683.47;5027383;28;20089;-89
2024/01/14 09:06:42;;;;;;;54.42;39.92;;;;;;;16.31;19.37;94689.78;5028123;28;20114;-83
2024/01/14 09:09:07;;;;;;;49.28;38.22;;;;;;;16.35;19.29;94685.56;5026488;28;20403;-82
2024/01/14 09:11:33;;;;;;;51.60;36.97;;;;;;;16.60;19.16;94692.47;5027772;28;20052;-82
2024/01/14 09:13:58;;;;;;;50.50;36.65;;;;;;;17.15;18.57;94696.56;5026526;28;20029;-83
2024/01/14 09:16:24;;;;;;;49.80;35.72;;;;;;;17.22;18.02;94690.59;5027510;28;20047;-84
2024/01/14 09:18:49;;;;;;;48.25;35.15;;;;;;;17.22;18.41;94676.69;5026968;28;20044;-87
2024/01/14 09:21:15;;;;;;;43.60;34.38;;;;;;;17.50;18.13;94669.44;5025482;28;20524;-85
2024/01/14 09:23:40;;;;;;;45.70;31.73;;;;;;;17.52;18.02;94680.81;5027850;28;20021;-93
2024/01/14 09:26:06;;;;;;;40.13;30.02;;;;;;;17.71;17.61;94677.72;5026919;28;20029;-89
2024/01/14 09:28:32;;;;;;;38.13;28.77;;;;;;;17.74;17.24;94672.00;5028314;28;20064;-91
2024/01/14 09:30:57;;;;;;;49.13;43.28;;;;;;;18.21;16.90;94669.13;5026694;28;20476;-86
2024/01/14 09:33:23;;;;;;;43.00;31.92;;;;;;;18.74;16.75;94668.53;5027591;28;20057;-86
2024/01/14 09:35:48;;;;;;;38.85;31.10;;;;;;;19.15;16.62;94665.44;5026758;28;20029;-86
2024/01/14 09:38:14;;;;;;;39.80;29.52;;;;;;;19.24;16.59;94653.34;5027161;28;20105;-88
2024/01/14 09:40:40;;;;;;;38.42;28.33;;;;;;;19.29;16.17;94650.56;5028086;28;20053;-88
2024/01/14 09:43:09;;;;;;;39.83;28.35;;;;;;;18.62;16.64;94650.19;5025395;28;20021;-81
2024/01/14 09:45:35;;;;;;;37.78;28.58;;;;;;;19.11;16.43;94648.22;5027942;28;20051;-83
2024/01/14 09:48:01;;;;;;;35.55;27.70;;;;;;;19.61;15.87;94647.66;5026168;28;20061;-84
2024/01/14 09:50:27;;;;;;;35.17;27.20;;;;;;;20.31;15.23;94637.59;5027253;28;20878;-84
2024/01/14 09:52:52;;;;;;;33.15;25.77;;;;;;;20.80;14.92;94633.22;5027704;28;20025;-84
2024/01/14 09:55:18;;;;;;;33.28;26.00;;;;;;;21.42;14.67;94633.06;5027784;28;20034;-86
2024/01/14 09:57:48;;;;;;;34.30;26.58;;;;;;;21.62;14.42;94631.91;5027816;28;20022;-86
2024/01/14 10:00:14;;;;;;;33.80;25.88;;;;;;;21.95;14.28;94633.75;5027839;28;20041;-84
2024/01/14 10:02:40;;;;;;;36.97;28.02;;;;;;;22.65;13.67;94628.63;5027638;28;20025;-83
2024/01/14 10:05:07;;;;;;;38.85;27.33;;;;;;;22.56;13.76;94629.75;5025421;28;20021;-87
2024/01/14 10:07:33;;;;;;;38.70;28.00;;;;;;;22.69;13.63;94637.50;5029446;28;20021;-88
2024/01/14 10:09:58;;;;;;;36.60;27.20;;;;;;;21.71;14.17;94629.59;5027615;28;20048;-78
2024/01/14 10:12:25;;;;;;;37.45;28.30;;;;;;;20.76;15.07;94618.00;5026554;28;20410;-78
2024/01/14 10:14:58;;;;;;;34.30;27.02;;;;;;;21.57;14.09;94622.31;5025875;28;20044;-79
2024/01/14 10:17:23;;;;;;;33.03;25.83;;;;;;;21.39;14.42;94615.28;5025520;28;20183;-86
2024/01/14 10:19:54;;;;;;;35.85;26.58;;;;;;;21.39;14.52;94608.91;5026868;28;20116;-86
2024/01/14 10:22:23;;;;;;;34.03;25.58;;;;;;;20.52;15.02;94599.78;5026499;28;20021;-86
2024/01/14 10:24:52;;;;;;;35.35;25.10;;;;;;;20.61;15.99;94598.75;5028160;28;20029;-84
2024/01/14 10:27:18;;;;;;;36.38;25.38;;;;;;;20.30;16.15;94592.19;5025040;28;20119;-88
2024/01/14 10:29:43;;;;;;;41.92;34.22;;;;;;;19.91;16.57;94586.63;5026221;28;20068;-89
2024/01/14 10:32:09;;;;;;;38.28;26.90;;;;;;;20.40;15.90;94589.88;5024970;28;20112;-85
2024/01/14 10:34:34;;;;;;;30.30;23.95;;;;;;;20.89;15.63;94573.53;5025671;28;20030;-89
2024/01/14 10:37:01;;;;;;;31.55;24.10;;;;;;;21.16;15.76;94572.66;5026124;28;20459;-89
2024/01/14 10:39:32;;;;;;;33.20;24.10;;;;;;;21.42;15.72;94577.88;5026083;28;20029;-90
2024/01/14 10:41:59;;;;;;;33.25;23.67;;;;;;;21.50;14.76;94566.91;5026661;28;20040;-79
2024/01/14 10:44:24;;;;;;;28.80;23.17;;;;;;;21.79;14.06;94568.22;5024890;28;20562;-81
2024/01/14 10:46:52;;;;;;;33.65;23.58;;;;;;;22.04;14.23;94559.94;5026358;28;20025;-79
2024/01/14 10:49:21;;;;;;;31.42;23.65;;;;;;;22.70;13.83;94546.56;5025630;28;20025;-77
2024/01/14 10:51:48;;;;;;;32.45;22.80;;;;;;;23.17;13.14;94551.91;5023970;28;20030;-77
2024/01/14 10:54:27;;;;;;;34.25;23.00;;;;;;;23.21;13.30;94535.53;5025379;28;20022;-79
2024/01/14 10:57:06;;;;;;;29.42;22.85;;;;;;;23.12;13.36;94539.50;5024930;28;20124;-81
2024/01/14 10:59:33;;;;;;;36.38;21.88;;;;;;;22.79;13.17;94532.97;5025079;28;20029;-80
2024/01/14 11:01:58;;;;;;;32.92;22.40;;;;;;;22.11;13.96;94526.53;5024035;28;20022;-77
2024/01/14 11:04:25;;;;;;;29.92;21.90;;;;;;;20.98;14.79;94531.31;5024572;28;20507;-77
2024/01/14 11:06:55;;;;;;;31.02;20.88;;;;;;;19.37;15.93;94526.19;5024354;28;20144;-78
2024/01/14 11:09:21;;;;;;;34.03;23.17;;;;;;;19.23;15.43;94513.25;5023367;28;20044;-90
2024/01/14 11:11:55;;;;;;;31.60;22.38;;;;;;;19.33;15.87;94511.75;5030775;28;20323;-81